createdAt,value
2019-04-27T00:00:49.028Z,5.78
2019-04-27T00:04:57.287Z,6.40
2019-04-27T00:09:03.497Z,7.85
2019-04-27T00:13:07.505Z,6.30
2019-04-27T00:17:41.313Z,6.53
2019-04-27T00:21:40.790Z,7.92
2019-04-27T00:25:44.279Z,7.05
2019-04-27T00:29:48.138Z,6.70
2019-04-27T00:33:53.441Z,6.78
2019-04-27T00:38:15.095Z,8.58
2019-04-27T00:42:18.649Z,8.05
2019-04-27T00:46:22.895Z,7.05
2019-04-27T00:50:26.694Z,8.25
2019-04-27T00:54:30.193Z,6.17
2019-04-27T00:58:38.415Z,8.13
2019-04-27T01:02:43.890Z,7.70
2019-04-27T01:06:47.566Z,6.53
2019-04-27T01:10:51.396Z,7.53
2019-04-27T01:14:54.885Z,7.75
2019-04-27T01:18:58.956Z,7.55
2019-04-27T01:23:02.507Z,7.05
2019-04-27T01:27:18.820Z,8.05
2019-04-27T01:31:23.391Z,8.65
2019-04-27T01:35:26.887Z,7.67
2019-04-27T01:39:30.655Z,8.77
2019-04-27T01:43:34.141Z,7.75
2019-04-27T01:47:39.159Z,8.10
2019-04-27T01:51:42.861Z,6.83
2019-04-27T01:55:46.351Z,8.60
2019-04-27T01:59:50.279Z,8.05
2019-04-27T02:03:55.397Z,9.20
2019-04-27T02:07:59.373Z,8.93
2019-04-27T02:12:03.117Z,12.03
2019-04-27T02:16:08.907Z,10.32
2019-04-27T02:20:12.734Z,9.35
2019-04-27T02:24:16.203Z,9.38
2019-04-27T02:28:27.392Z,8.85
2019-04-27T02:32:32.893Z,10.50
2019-04-27T02:36:39.010Z,9.40
2019-04-27T02:40:51.505Z,11.12
2019-04-27T02:44:55.227Z,10.70
2019-04-27T02:49:03.179Z,10.53
2019-04-27T02:53:03.935Z,8.93
2019-04-27T02:57:09.888Z,9.33
2019-04-27T03:01:12.808Z,10.72
2019-04-27T03:05:22.116Z,10.93
2019-04-27T03:09:25.622Z,11.78
2019-04-27T03:13:33.285Z,10.18
2019-04-27T03:17:54.429Z,10.50
2019-04-27T03:22:05.377Z,9.70
2019-04-27T03:26:16.377Z,10.50
2019-04-27T03:30:22.607Z,8.73
2019-04-27T03:34:25.198Z,11.03
2019-04-27T03:38:30.145Z,9.98
2019-04-27T03:42:37.347Z,11.35
2019-04-27T03:46:40.159Z,12.50
2019-04-27T03:50:50.418Z,11.53
2019-04-27T03:55:10.469Z,10.88
2019-04-27T03:59:15.630Z,12.43
2019-04-27T04:03:20.295Z,10.08
2019-04-27T04:07:24.433Z,9.87
2019-04-27T04:11:35.905Z,11.33
2019-04-27T04:15:46.857Z,11.93
2019-04-27T04:19:57.561Z,10.90
2019-04-27T04:23:55.641Z,10.10
2019-04-27T04:28:00.594Z,11.45
2019-04-27T04:32:04.453Z,10.30
2019-04-27T04:36:10.109Z,9.93
2019-04-27T04:40:13.314Z,11.10
2019-04-27T04:44:34.716Z,11.53
2019-04-27T04:48:40.447Z,10.05
2019-04-27T04:52:43.984Z,11.08
2019-04-27T04:56:49.390Z,11.05
2019-04-27T05:00:52.691Z,8.85
2019-04-27T05:04:56.202Z,10.10
2019-04-27T05:09:00.143Z,12.63
2019-04-27T05:13:03.646Z,11.45
2019-04-27T05:17:07.177Z,12.37
2019-04-27T05:21:18.564Z,10.75
2019-04-27T05:25:22.448Z,10.38
2019-04-27T05:29:26.101Z,12.13
2019-04-27T05:33:29.598Z,11.07
2019-04-27T05:37:33.111Z,10.65
2019-04-27T05:41:37.397Z,12.33
2019-04-27T05:46:01.341Z,11.55
2019-04-27T05:50:09.075Z,10.72
2019-04-27T05:54:12.992Z,12.10
2019-04-27T05:58:16.495Z,12.07
2019-04-27T06:02:20.359Z,10.10
2019-04-27T06:06:25.551Z,12.23
2019-04-27T06:10:32.033Z,11.73
2019-04-27T06:14:35.627Z,12.73
2019-04-27T06:18:39.523Z,10.43
2019-04-27T06:22:43.778Z,9.85
2019-04-27T06:26:47.272Z,12.88
2019-04-27T06:30:51.150Z,10.53
2019-04-27T06:34:54.646Z,9.55
2019-04-27T06:38:58.948Z,9.88
2019-04-27T06:43:02.907Z,8.58
2019-04-27T06:47:06.458Z,8.48
2019-04-27T06:51:10.016Z,8.20
2019-04-27T06:55:14.039Z,8.13
2019-04-27T06:59:18.633Z,7.40
2019-04-27T07:03:22.277Z,7.65
2019-04-27T07:07:25.785Z,7.57
2019-04-27T07:11:29.702Z,7.57
2019-04-27T07:15:33.438Z,9.85
2019-04-27T07:19:37.274Z,6.95
2019-04-27T07:23:48.839Z,8.00
2019-04-27T07:27:52.689Z,7.17
2019-04-27T07:31:56.191Z,6.72
2019-04-27T07:35:59.693Z,5.62
2019-04-27T07:40:03.608Z,5.47
2019-04-27T07:44:15.146Z,4.85
2019-04-27T07:48:18.900Z,5.20
2019-04-27T07:52:22.406Z,4.47
2019-04-27T07:56:25.900Z,4.83
2019-04-27T08:00:29.482Z,3.75
2019-04-27T08:04:32.994Z,4.33
2019-04-27T08:08:36.461Z,4.53
2019-04-27T08:12:39.958Z,3.83
2019-04-27T08:16:43.475Z,2.90
2019-04-27T08:20:46.950Z,2.52
2019-04-27T08:24:50.645Z,4.03
2019-04-27T08:29:08.604Z,3.58
2019-04-27T08:33:13.759Z,2.77
2019-04-27T08:37:18.798Z,3.15
2019-04-27T08:41:22.426Z,2.85
2019-04-27T08:45:25.915Z,3.02
2019-04-27T08:49:29.404Z,2.90
2019-04-27T08:53:32.906Z,2.47
2019-04-27T08:57:36.405Z,2.27
2019-04-27T09:01:39.946Z,2.50
2019-04-27T09:05:43.432Z,2.58
2019-04-27T09:09:49.815Z,2.52
2019-04-27T09:13:54.994Z,2.02
2019-04-27T09:17:59.809Z,2.20
2019-04-27T09:22:16.149Z,2.22
2019-04-27T09:26:14.812Z,1.55
2019-04-27T09:30:19.191Z,1.80
2019-04-27T09:34:22.650Z,1.80
2019-04-27T09:38:26.568Z,1.57
2019-04-27T09:42:30.462Z,1.90
2019-04-27T09:46:36.383Z,1.57
2019-04-27T09:50:40.354Z,1.82
2019-04-27T09:54:43.938Z,1.67
2019-04-27T09:58:47.394Z,1.80
2019-04-27T10:02:50.883Z,1.50
2019-04-27T10:06:54.374Z,1.45
2019-04-27T10:10:57.877Z,0.88
2019-04-27T10:15:01.360Z,1.10
2019-04-27T10:19:05.019Z,0.95
2019-04-27T10:23:08.514Z,1.45
2019-04-27T10:27:12.053Z,0.95
2019-04-27T10:31:15.884Z,0.85
2019-04-27T10:35:19.797Z,0.70
2019-04-27T10:39:23.286Z,0.93
2019-04-27T10:43:26.779Z,0.88
2019-04-27T10:47:30.648Z,0.80
2019-04-27T10:51:36.327Z,0.98
2019-04-27T10:55:39.848Z,1.15
2019-04-27T10:59:43.656Z,1.02
2019-04-27T11:03:57.554Z,0.72
2019-04-27T11:08:01.206Z,0.88
2019-04-27T11:12:06.759Z,0.90
2019-04-27T11:16:10.688Z,0.80
2019-04-27T11:20:15.097Z,0.72
2019-04-27T11:24:18.589Z,0.80
2019-04-27T11:28:22.081Z,0.75
2019-04-27T11:32:25.871Z,0.90
2019-04-27T11:36:30.983Z,0.70
2019-04-27T11:40:34.462Z,1.00
2019-04-27T11:44:37.954Z,0.90
2019-04-27T11:48:43.192Z,0.95
2019-04-27T11:52:47.470Z,0.82
2019-04-27T11:56:50.957Z,1.00
2019-04-27T12:00:55.950Z,0.60
2019-04-27T12:05:07.647Z,0.88
2019-04-27T12:09:11.402Z,0.80
2019-04-27T12:13:18.142Z,0.80
2019-04-27T12:17:21.623Z,1.00
2019-04-27T12:21:25.524Z,1.30
2019-04-27T12:25:31.818Z,1.52
2019-04-27T12:29:53.749Z,0.88
2019-04-27T12:33:59.028Z,0.70
2019-04-27T12:38:02.691Z,1.20
2019-04-27T12:42:06.189Z,1.77
2019-04-27T12:46:09.670Z,1.05
2019-04-27T12:50:14.517Z,1.10
2019-04-27T12:54:19.679Z,0.63
2019-04-27T12:58:27.220Z,1.10
2019-04-27T13:02:36.457Z,0.57
2019-04-27T13:06:40.031Z,0.62
2019-04-27T13:10:45.160Z,1.05
2019-04-27T13:14:48.645Z,1.02
2019-04-27T13:18:52.131Z,0.50
2019-04-27T13:22:55.621Z,0.80
2019-04-27T13:26:59.103Z,0.88
2019-04-27T13:31:02.605Z,0.60
2019-04-27T13:35:07.981Z,0.78
2019-04-27T13:39:11.555Z,0.53
2019-04-27T13:43:16.793Z,0.57
2019-04-27T13:47:21.914Z,0.98
2019-04-27T13:51:32.791Z,0.90
2019-04-27T13:55:36.286Z,0.50
2019-04-27T13:59:41.704Z,1.12
2019-04-27T14:03:46.954Z,1.07
2019-04-27T14:07:50.791Z,1.52
2019-04-27T14:11:57.624Z,0.93
2019-04-27T14:16:01.234Z,1.82
2019-04-27T14:20:05.619Z,1.00
2019-04-27T14:24:09.922Z,0.60
2019-04-27T14:28:13.787Z,0.75
2019-04-27T14:32:18.768Z,0.57
2019-04-27T14:36:22.384Z,0.65
2019-04-27T14:40:28.737Z,0.80
2019-04-27T14:44:32.381Z,1.85
2019-04-27T14:48:35.854Z,0.93
2019-04-27T14:52:40.894Z,1.22
2019-04-27T14:56:44.918Z,0.80
2019-04-27T15:00:49.867Z,0.88
2019-04-27T15:04:53.808Z,0.78
2019-04-27T15:08:57.242Z,0.55
2019-04-27T15:13:01.538Z,0.70
2019-04-27T15:17:06.884Z,0.80
2019-04-27T15:21:10.672Z,0.70
2019-04-27T15:25:15.710Z,0.70
2019-04-27T15:29:25.362Z,0.70
2019-04-27T15:33:46.821Z,0.57
2019-04-27T15:37:50.959Z,0.60
2019-04-27T15:42:07.976Z,0.30
2019-04-27T15:46:08.301Z,0.55
2019-04-27T15:50:12.176Z,0.40
2019-04-27T15:54:15.664Z,0.70
2019-04-27T15:58:24.855Z,0.83
2019-04-27T16:02:24.825Z,0.43
2019-04-27T16:06:28.319Z,0.60
2019-04-27T16:10:32.698Z,0.53
2019-04-27T16:14:40.885Z,1.00
2019-04-27T16:18:42.623Z,0.37
2019-04-27T16:22:46.181Z,0.28
2019-04-27T16:26:52.226Z,0.15
2019-04-27T16:30:55.554Z,0.10
2019-04-27T16:34:59.314Z,0.10
2019-04-27T16:39:08.178Z,0.10
2019-04-27T16:43:09.681Z,0.20
2019-04-27T16:47:18.775Z,0.25
2019-04-27T16:51:18.842Z,0.30
2019-04-27T16:55:22.352Z,0.10
2019-04-27T16:59:40.903Z,0.57
2019-04-27T17:03:31.573Z,0.33
2019-04-27T17:07:37.622Z,0.20
2019-04-27T17:11:43.608Z,0.30
2019-04-27T17:15:55.060Z,0.45
2019-04-27T17:20:01.327Z,0.68
2019-04-27T17:24:05.130Z,0.35
2019-04-27T17:28:12.854Z,0.25
2019-04-27T17:32:20.700Z,0.42
2019-04-27T17:36:24.192Z,0.42
2019-04-27T17:40:29.823Z,0.40
2019-04-27T17:44:32.887Z,0.30
2019-04-27T17:48:37.962Z,0.50
2019-04-27T17:52:41.712Z,0.50
2019-04-27T17:56:49.564Z,0.72
2019-04-27T18:00:50.706Z,0.40
2019-04-27T18:04:54.184Z,0.28
2019-04-27T18:09:00.523Z,0.90
2019-04-27T18:13:02.897Z,0.50
2019-04-27T18:17:10.348Z,0.62
2019-04-27T18:21:12.719Z,0.80
2019-04-27T18:25:18.697Z,0.90
2019-04-27T18:29:27.051Z,0.57
2019-04-27T18:33:32.547Z,0.80
2019-04-27T18:37:34.588Z,0.55
2019-04-27T18:41:44.474Z,0.93
2019-04-27T18:45:44.895Z,0.80
2019-04-27T18:50:07.458Z,1.30
2019-04-27T18:54:03.543Z,1.27
2019-04-27T18:58:06.963Z,1.12
2019-04-27T19:02:10.460Z,1.65
2019-04-27T19:06:13.956Z,1.13
2019-04-27T19:10:19.242Z,1.03
2019-04-27T19:14:22.824Z,0.87
2019-04-27T19:18:26.323Z,1.98
2019-04-27T19:22:30.013Z,1.05
2019-04-27T19:26:50.732Z,2.00
2019-04-27T19:31:10.696Z,1.67
2019-04-27T19:35:14.202Z,1.42
2019-04-27T19:39:18.203Z,1.10
2019-04-27T19:43:22.275Z,1.57
2019-04-27T19:47:25.765Z,1.25
2019-04-27T19:51:29.237Z,1.65
2019-04-27T19:55:32.745Z,1.80
2019-04-27T19:59:38.133Z,1.12
2019-04-27T20:03:43.381Z,2.00
2019-04-27T20:07:48.239Z,1.10
2019-04-27T20:11:51.971Z,1.35
2019-04-27T20:16:01.305Z,1.52
2019-04-27T20:20:07.175Z,1.70
2019-04-27T20:24:11.818Z,1.42
2019-04-27T20:28:15.692Z,1.70
2019-04-27T20:32:21.368Z,1.10
2019-04-27T20:36:24.548Z,1.00
2019-04-27T20:40:28.034Z,0.80
2019-04-27T20:44:31.535Z,1.10
2019-04-27T20:48:35.024Z,0.98
2019-04-27T20:52:43.177Z,1.25
2019-04-27T20:56:46.648Z,1.32
2019-04-27T21:00:51.792Z,1.12
2019-04-27T21:04:57.287Z,2.10
2019-04-27T21:09:02.858Z,0.90
2019-04-27T21:13:06.220Z,0.90
2019-04-27T21:17:11.712Z,1.20
2019-04-27T21:21:15.272Z,1.25
2019-04-27T21:25:19.014Z,1.40
2019-04-27T21:29:22.694Z,1.35
2019-04-27T21:33:26.205Z,1.47
2019-04-27T21:37:30.745Z,1.20
2019-04-27T21:41:34.535Z,1.47
2019-04-27T21:45:38.324Z,2.12
2019-04-27T21:49:41.917Z,1.35
2019-04-27T21:54:02.419Z,1.75
2019-04-27T21:58:05.892Z,2.40
2019-04-27T22:02:12.094Z,1.75
2019-04-27T22:06:15.974Z,1.60
2019-04-27T22:10:20.921Z,1.80
2019-04-27T22:14:24.429Z,2.02
2019-04-27T22:18:27.904Z,2.12
2019-04-27T22:22:35.751Z,2.20
2019-04-27T22:26:39.346Z,2.40
2019-04-27T22:30:43.706Z,2.50
2019-04-27T22:34:47.209Z,3.02
2019-04-27T22:38:51.634Z,2.22
2019-04-27T22:43:15.292Z,2.37
2019-04-27T22:47:19.151Z,2.60
2019-04-27T22:51:22.641Z,2.08
2019-04-27T22:55:26.261Z,2.50
2019-04-27T22:59:37.561Z,2.58
2019-04-27T23:03:42.674Z,2.60
2019-04-27T23:07:46.157Z,2.62
2019-04-27T23:11:51.535Z,3.12
2019-04-27T23:15:56.705Z,3.67
2019-04-27T23:20:01.345Z,2.25
2019-04-27T23:24:05.083Z,2.75
2019-04-27T23:28:10.188Z,2.95
2019-04-27T23:32:15.373Z,3.07
2019-04-27T23:36:18.864Z,2.83
2019-04-27T23:40:22.616Z,2.70
2019-04-27T23:44:26.090Z,3.22
2019-04-27T23:48:29.562Z,2.30
2019-04-27T23:52:52.506Z,2.55
2019-04-27T23:56:56.202Z,2.67
